sensor_id;sensor_type;location;lat;lon;timestamp;P1;durP1;ratioP1;P2;durP2;ratioP2
75371;SDS011;63956;52.006;5.878;2022-12-18T00:00:25;44.05;;;19.73;;
75371;SDS011;63956;52.006;5.878;2022-12-18T00:02:55;50.33;;;21.40;;
75371;SDS011;63956;52.006;5.878;2022-12-18T00:05:24;38.80;;;15.50;;
75371;SDS011;63956;52.006;5.878;2022-12-18T00:07:55;44.40;;;18.48;;
75371;SDS011;63956;52.006;5.878;2022-12-18T00:10:24;46.50;;;18.02;;
75371;SDS011;63956;52.006;5.878;2022-12-18T00:12:53;39.75;;;13.38;;
75371;SDS011;63956;52.006;5.878;2022-12-18T00:15:23;45.15;;;19.50;;
75371;SDS011;63956;52.006;5.878;2022-12-18T00:17:52;43.05;;;20.10;;
75371;SDS011;63956;52.006;5.878;2022-12-18T00:20:21;42.63;;;20.38;;
75371;SDS011;63956;52.006;5.878;2022-12-18T00:22:54;48.15;;;20.70;;
75371;SDS011;63956;52.006;5.878;2022-12-18T00:25:23;41.75;;;19.42;;
75371;SDS011;63956;52.006;5.878;2022-12-18T00:27:52;38.53;;;16.42;;
75371;SDS011;63956;52.006;5.878;2022-12-18T00:30:21;38.22;;;17.25;;
75371;SDS011;63956;52.006;5.878;2022-12-18T00:32:50;36.63;;;17.23;;
75371;SDS011;63956;52.006;5.878;2022-12-18T00:35:19;37.53;;;17.77;;
75371;SDS011;63956;52.006;5.878;2022-12-18T00:37:48;39.47;;;18.90;;
75371;SDS011;63956;52.006;5.878;2022-12-18T00:40:20;40.15;;;16.58;;
75371;SDS011;63956;52.006;5.878;2022-12-18T00:42:49;40.78;;;19.70;;
75371;SDS011;63956;52.006;5.878;2022-12-18T00:45:21;39.22;;;19.98;;
75371;SDS011;63956;52.006;5.878;2022-12-18T00:47:51;36.00;;;18.23;;
75371;SDS011;63956;52.006;5.878;2022-12-18T00:50:21;33.55;;;17.00;;
75371;SDS011;63956;52.006;5.878;2022-12-18T00:52:52;27.88;;;14.05;;
75371;SDS011;63956;52.006;5.878;2022-12-18T00:55:23;42.50;;;17.30;;
75371;SDS011;63956;52.006;5.878;2022-12-18T00:57:52;38.33;;;18.83;;
75371;SDS011;63956;52.006;5.878;2022-12-18T01:00:22;35.55;;;15.93;;
75371;SDS011;63956;52.006;5.878;2022-12-18T01:02:51;34.05;;;15.35;;
75371;SDS011;63956;52.006;5.878;2022-12-18T01:05:20;31.80;;;15.20;;
75371;SDS011;63956;52.006;5.878;2022-12-18T01:07:49;35.20;;;18.55;;
75371;SDS011;63956;52.006;5.878;2022-12-18T01:10:19;35.65;;;16.35;;
75371;SDS011;63956;52.006;5.878;2022-12-18T01:12:50;31.70;;;16.50;;
75371;SDS011;63956;52.006;5.878;2022-12-18T01:15:20;32.33;;;16.70;;
75371;SDS011;63956;52.006;5.878;2022-12-18T01:17:49;38.30;;;20.58;;
75371;SDS011;63956;52.006;5.878;2022-12-18T01:20:20;24.67;;;9.60;;
75371;SDS011;63956;52.006;5.878;2022-12-18T01:22:49;31.25;;;12.13;;
75371;SDS011;63956;52.006;5.878;2022-12-18T01:25:18;25.70;;;13.90;;
75371;SDS011;63956;52.006;5.878;2022-12-18T01:27:52;24.08;;;10.68;;
75371;SDS011;63956;52.006;5.878;2022-12-18T01:30:21;27.58;;;13.98;;
75371;SDS011;63956;52.006;5.878;2022-12-18T01:32:52;32.33;;;17.15;;
75371;SDS011;63956;52.006;5.878;2022-12-18T01:35:21;37.22;;;17.40;;
75371;SDS011;63956;52.006;5.878;2022-12-18T01:37:53;34.85;;;16.10;;
75371;SDS011;63956;52.006;5.878;2022-12-18T01:40:23;37.60;;;16.73;;
75371;SDS011;63956;52.006;5.878;2022-12-18T01:42:55;32.70;;;16.00;;
75371;SDS011;63956;52.006;5.878;2022-12-18T01:45:25;27.63;;;13.57;;
75371;SDS011;63956;52.006;5.878;2022-12-18T01:47:56;33.10;;;16.73;;
75371;SDS011;63956;52.006;5.878;2022-12-18T01:50:30;31.63;;;15.32;;
75371;SDS011;63956;52.006;5.878;2022-12-18T01:53:03;29.90;;;17.92;;
75371;SDS011;63956;52.006;5.878;2022-12-18T01:55:35;27.40;;;15.50;;
75371;SDS011;63956;52.006;5.878;2022-12-18T01:58:09;31.10;;;14.70;;
75371;SDS011;63956;52.006;5.878;2022-12-18T02:00:39;27.95;;;11.70;;
75371;SDS011;63956;52.006;5.878;2022-12-18T02:03:08;26.60;;;14.23;;
75371;SDS011;63956;52.006;5.878;2022-12-18T02:05:40;22.58;;;13.65;;
75371;SDS011;63956;52.006;5.878;2022-12-18T02:08:22;26.58;;;14.00;;
75371;SDS011;63956;52.006;5.878;2022-12-18T02:11:00;33.55;;;16.50;;
75371;SDS011;63956;52.006;5.878;2022-12-18T02:13:40;31.38;;;17.05;;
75371;SDS011;63956;52.006;5.878;2022-12-18T02:16:17;27.35;;;14.95;;
75371;SDS011;63956;52.006;5.878;2022-12-18T02:18:51;27.77;;;15.35;;
75371;SDS011;63956;52.006;5.878;2022-12-18T02:21:27;31.83;;;15.55;;
75371;SDS011;63956;52.006;5.878;2022-12-18T02:24:08;30.25;;;15.95;;
75371;SDS011;63956;52.006;5.878;2022-12-18T02:26:49;33.90;;;17.27;;
75371;SDS011;63956;52.006;5.878;2022-12-18T02:29:24;29.05;;;14.60;;
75371;SDS011;63956;52.006;5.878;2022-12-18T02:31:56;26.77;;;13.70;;
75371;SDS011;63956;52.006;5.878;2022-12-18T02:34:28;25.05;;;13.60;;
75371;SDS011;63956;52.006;5.878;2022-12-18T02:37:01;31.60;;;15.80;;
75371;SDS011;63956;52.006;5.878;2022-12-18T02:39:34;29.10;;;15.20;;
75371;SDS011;63956;52.006;5.878;2022-12-18T02:42:08;23.52;;;9.52;;
75371;SDS011;63956;52.006;5.878;2022-12-18T02:44:43;27.30;;;14.85;;
75371;SDS011;63956;52.006;5.878;2022-12-18T02:47:17;27.20;;;15.43;;
75371;SDS011;63956;52.006;5.878;2022-12-18T02:49:51;20.50;;;10.10;;
75371;SDS011;63956;52.006;5.878;2022-12-18T02:52:31;24.52;;;10.80;;
75371;SDS011;63956;52.006;5.878;2022-12-18T02:55:08;28.80;;;12.30;;
75371;SDS011;63956;52.006;5.878;2022-12-18T02:57:53;21.70;;;11.75;;
75371;SDS011;63956;52.006;5.878;2022-12-18T03:00:30;21.52;;;10.57;;
75371;SDS011;63956;52.006;5.878;2022-12-18T03:03:06;26.35;;;14.60;;
75371;SDS011;63956;52.006;5.878;2022-12-18T03:05:43;21.77;;;13.18;;
75371;SDS011;63956;52.006;5.878;2022-12-18T03:08:17;26.63;;;14.00;;
75371;SDS011;63956;52.006;5.878;2022-12-18T03:10:50;28.95;;;13.52;;
75371;SDS011;63956;52.006;5.878;2022-12-18T03:13:26;24.38;;;12.70;;
75371;SDS011;63956;52.006;5.878;2022-12-18T03:15:59;28.42;;;11.88;;
75371;SDS011;63956;52.006;5.878;2022-12-18T03:18:30;24.98;;;10.43;;
75371;SDS011;63956;52.006;5.878;2022-12-18T03:21:04;32.58;;;16.10;;
75371;SDS011;63956;52.006;5.878;2022-12-18T03:23:39;24.17;;;12.95;;
75371;SDS011;63956;52.006;5.878;2022-12-18T03:26:15;25.27;;;16.52;;
75371;SDS011;63956;52.006;5.878;2022-12-18T03:28:55;26.95;;;15.30;;
75371;SDS011;63956;52.006;5.878;2022-12-18T03:31:28;22.60;;;12.95;;
75371;SDS011;63956;52.006;5.878;2022-12-18T03:34:01;25.83;;;13.23;;
75371;SDS011;63956;52.006;5.878;2022-12-18T03:36:40;18.67;;;11.82;;
75371;SDS011;63956;52.006;5.878;2022-12-18T03:41:42;22.40;;;9.60;;
75371;SDS011;63956;52.006;5.878;2022-12-18T03:44:27;27.15;;;12.50;;
75371;SDS011;63956;52.006;5.878;2022-12-18T03:47:01;25.92;;;15.25;;
75371;SDS011;63956;52.006;5.878;2022-12-18T03:49:38;22.48;;;12.18;;
75371;SDS011;63956;52.006;5.878;2022-12-18T03:52:16;24.52;;;11.52;;
75371;SDS011;63956;52.006;5.878;2022-12-18T03:54:52;18.70;;;9.63;;
75371;SDS011;63956;52.006;5.878;2022-12-18T03:57:26;23.40;;;13.27;;
75371;SDS011;63956;52.006;5.878;2022-12-18T04:00:03;22.63;;;12.02;;
75371;SDS011;63956;52.006;5.878;2022-12-18T04:02:41;20.92;;;11.60;;
75371;SDS011;63956;52.006;5.878;2022-12-18T04:05:21;21.60;;;11.73;;
75371;SDS011;63956;52.006;5.878;2022-12-18T04:07:53;22.73;;;12.05;;
75371;SDS011;63956;52.006;5.878;2022-12-18T04:10:23;21.38;;;11.98;;
75371;SDS011;63956;52.006;5.878;2022-12-18T04:12:55;20.77;;;11.68;;
75371;SDS011;63956;52.006;5.878;2022-12-18T04:15:28;22.45;;;10.05;;
75371;SDS011;63956;52.006;5.878;2022-12-18T04:17:58;26.92;;;13.10;;
75371;SDS011;63956;52.006;5.878;2022-12-18T04:20:37;17.55;;;10.40;;
75371;SDS011;63956;52.006;5.878;2022-12-18T04:23:07;18.97;;;11.10;;
75371;SDS011;63956;52.006;5.878;2022-12-18T04:28:10;17.92;;;8.52;;
75371;SDS011;63956;52.006;5.878;2022-12-18T04:30:42;20.13;;;11.63;;
75371;SDS011;63956;52.006;5.878;2022-12-18T04:33:12;19.08;;;11.07;;
75371;SDS011;63956;52.006;5.878;2022-12-18T04:35:48;17.05;;;9.18;;
75371;SDS011;63956;52.006;5.878;2022-12-18T04:38:18;24.13;;;11.60;;
75371;SDS011;63956;52.006;5.878;2022-12-18T04:40:53;24.73;;;13.57;;
75371;SDS011;63956;52.006;5.878;2022-12-18T04:43:25;23.08;;;11.63;;
75371;SDS011;63956;52.006;5.878;2022-12-18T04:46:03;18.50;;;11.13;;
75371;SDS011;63956;52.006;5.878;2022-12-18T04:48:33;22.48;;;11.30;;
75371;SDS011;63956;52.006;5.878;2022-12-18T04:51:03;19.23;;;11.35;;
75371;SDS011;63956;52.006;5.878;2022-12-18T04:53:33;19.77;;;8.23;;
75371;SDS011;63956;52.006;5.878;2022-12-18T04:56:03;19.67;;;11.40;;
75371;SDS011;63956;52.006;5.878;2022-12-18T04:58:33;12.95;;;7.47;;
75371;SDS011;63956;52.006;5.878;2022-12-18T05:01:06;18.63;;;11.07;;
75371;SDS011;63956;52.006;5.878;2022-12-18T05:03:36;22.90;;;14.32;;
75371;SDS011;63956;52.006;5.878;2022-12-18T05:08:35;23.50;;;11.13;;
75371;SDS011;63956;52.006;5.878;2022-12-18T05:11:05;24.30;;;10.40;;
75371;SDS011;63956;52.006;5.878;2022-12-18T05:13:36;16.40;;;11.00;;
75371;SDS011;63956;52.006;5.878;2022-12-18T05:16:09;19.83;;;12.48;;
75371;SDS011;63956;52.006;5.878;2022-12-18T05:18:38;12.65;;;6.63;;
75371;SDS011;63956;52.006;5.878;2022-12-18T05:21:08;16.95;;;9.38;;
75371;SDS011;63956;52.006;5.878;2022-12-18T05:23:37;16.55;;;9.50;;
75371;SDS011;63956;52.006;5.878;2022-12-18T05:26:06;18.75;;;10.57;;
75371;SDS011;63956;52.006;5.878;2022-12-18T05:28:35;12.40;;;7.18;;
75371;SDS011;63956;52.006;5.878;2022-12-18T05:31:05;20.92;;;12.10;;
75371;SDS011;63956;52.006;5.878;2022-12-18T05:33:37;15.73;;;9.48;;
75371;SDS011;63956;52.006;5.878;2022-12-18T05:36:06;16.70;;;10.18;;
75371;SDS011;63956;52.006;5.878;2022-12-18T05:38:37;19.80;;;11.20;;
75371;SDS011;63956;52.006;5.878;2022-12-18T05:41:07;16.77;;;11.00;;
75371;SDS011;63956;52.006;5.878;2022-12-18T05:43:38;18.77;;;11.00;;
75371;SDS011;63956;52.006;5.878;2022-12-18T05:46:09;16.55;;;9.82;;
75371;SDS011;63956;52.006;5.878;2022-12-18T05:48:44;20.85;;;11.27;;
75371;SDS011;63956;52.006;5.878;2022-12-18T05:51:14;17.17;;;9.27;;
75371;SDS011;63956;52.006;5.878;2022-12-18T05:53:45;19.00;;;10.90;;
75371;SDS011;63956;52.006;5.878;2022-12-18T05:56:15;13.93;;;7.78;;
75371;SDS011;63956;52.006;5.878;2022-12-18T05:58:45;17.20;;;10.77;;
75371;SDS011;63956;52.006;5.878;2022-12-18T06:01:16;18.15;;;11.00;;
75371;SDS011;63956;52.006;5.878;2022-12-18T06:03:49;18.88;;;11.57;;
75371;SDS011;63956;52.006;5.878;2022-12-18T06:06:19;21.08;;;11.82;;
75371;SDS011;63956;52.006;5.878;2022-12-18T06:08:49;18.02;;;11.88;;
75371;SDS011;63956;52.006;5.878;2022-12-18T06:11:20;17.75;;;10.27;;
75371;SDS011;63956;52.006;5.878;2022-12-18T06:13:50;15.35;;;8.88;;
75371;SDS011;63956;52.006;5.878;2022-12-18T06:18:51;15.35;;;8.63;;
75371;SDS011;63956;52.006;5.878;2022-12-18T06:21:20;21.50;;;10.38;;
75371;SDS011;63956;52.006;5.878;2022-12-18T06:23:49;17.67;;;11.38;;
75371;SDS011;63956;52.006;5.878;2022-12-18T06:26:18;16.05;;;10.38;;
75371;SDS011;63956;52.006;5.878;2022-12-18T06:28:47;18.38;;;10.77;;
75371;SDS011;63956;52.006;5.878;2022-12-18T06:31:16;18.58;;;12.88;;
75371;SDS011;63956;52.006;5.878;2022-12-18T06:33:45;20.70;;;11.45;;
75371;SDS011;63956;52.006;5.878;2022-12-18T06:36:17;16.50;;;9.43;;
75371;SDS011;63956;52.006;5.878;2022-12-18T06:38:47;17.00;;;10.52;;
75371;SDS011;63956;52.006;5.878;2022-12-18T06:41:16;16.52;;;10.15;;
75371;SDS011;63956;52.006;5.878;2022-12-18T06:43:47;20.38;;;11.13;;
75371;SDS011;63956;52.006;5.878;2022-12-18T06:46:16;18.20;;;10.18;;
75371;SDS011;63956;52.006;5.878;2022-12-18T06:48:48;16.85;;;9.63;;
75371;SDS011;63956;52.006;5.878;2022-12-18T06:51:22;17.98;;;11.82;;
75371;SDS011;63956;52.006;5.878;2022-12-18T06:53:51;18.35;;;9.80;;
75371;SDS011;63956;52.006;5.878;2022-12-18T06:56:21;20.52;;;11.05;;
75371;SDS011;63956;52.006;5.878;2022-12-18T06:58:50;17.80;;;10.00;;
75371;SDS011;63956;52.006;5.878;2022-12-18T07:01:19;15.77;;;9.43;;
75371;SDS011;63956;52.006;5.878;2022-12-18T07:03:51;17.17;;;9.73;;
75371;SDS011;63956;52.006;5.878;2022-12-18T07:06:24;11.75;;;7.30;;
75371;SDS011;63956;52.006;5.878;2022-12-18T07:08:54;17.98;;;10.30;;
75371;SDS011;63956;52.006;5.878;2022-12-18T07:11:24;17.95;;;8.80;;
75371;SDS011;63956;52.006;5.878;2022-12-18T07:13:53;20.95;;;10.10;;
75371;SDS011;63956;52.006;5.878;2022-12-18T07:16:25;14.30;;;8.13;;
75371;SDS011;63956;52.006;5.878;2022-12-18T07:18:54;17.77;;;10.07;;
75371;SDS011;63956;52.006;5.878;2022-12-18T07:21:26;18.33;;;9.63;;
75371;SDS011;63956;52.006;5.878;2022-12-18T07:23:55;17.23;;;9.75;;
75371;SDS011;63956;52.006;5.878;2022-12-18T07:26:24;17.83;;;7.10;;
75371;SDS011;63956;52.006;5.878;2022-12-18T07:28:54;17.38;;;9.60;;
75371;SDS011;63956;52.006;5.878;2022-12-18T07:31:24;18.83;;;9.98;;
75371;SDS011;63956;52.006;5.878;2022-12-18T07:33:54;15.80;;;9.68;;
75371;SDS011;63956;52.006;5.878;2022-12-18T07:38:55;18.10;;;8.77;;
75371;SDS011;63956;52.006;5.878;2022-12-18T07:41:24;15.80;;;9.93;;
75371;SDS011;63956;52.006;5.878;2022-12-18T07:43:53;16.13;;;8.55;;
75371;SDS011;63956;52.006;5.878;2022-12-18T07:46:22;16.30;;;8.93;;
75371;SDS011;63956;52.006;5.878;2022-12-18T07:48:51;13.98;;;8.70;;
75371;SDS011;63956;52.006;5.878;2022-12-18T07:51:20;15.02;;;8.20;;
75371;SDS011;63956;52.006;5.878;2022-12-18T07:53:52;15.25;;;9.02;;
75371;SDS011;63956;52.006;5.878;2022-12-18T07:56:21;13.05;;;7.82;;
75371;SDS011;63956;52.006;5.878;2022-12-18T07:58:50;14.43;;;8.57;;
75371;SDS011;63956;52.006;5.878;2022-12-18T08:01:20;14.15;;;8.35;;
75371;SDS011;63956;52.006;5.878;2022-12-18T08:03:49;15.25;;;8.55;;
75371;SDS011;63956;52.006;5.878;2022-12-18T08:06:18;13.05;;;8.75;;
75371;SDS011;63956;52.006;5.878;2022-12-18T08:08:47;13.57;;;9.13;;
75371;SDS011;63956;52.006;5.878;2022-12-18T08:11:19;15.25;;;8.48;;
75371;SDS011;63956;52.006;5.878;2022-12-18T08:13:48;17.88;;;8.77;;
75371;SDS011;63956;52.006;5.878;2022-12-18T08:16:17;15.57;;;8.32;;
75371;SDS011;63956;52.006;5.878;2022-12-18T08:18:47;12.57;;;7.60;;
75371;SDS011;63956;52.006;5.878;2022-12-18T08:23:48;12.10;;;7.78;;
75371;SDS011;63956;52.006;5.878;2022-12-18T08:28:50;13.80;;;7.25;;
75371;SDS011;63956;52.006;5.878;2022-12-18T08:31:19;14.60;;;9.02;;
75371;SDS011;63956;52.006;5.878;2022-12-18T08:33:49;16.10;;;9.85;;
75371;SDS011;63956;52.006;5.878;2022-12-18T08:36:21;14.98;;;6.90;;
75371;SDS011;63956;52.006;5.878;2022-12-18T08:38:51;14.48;;;8.20;;
75371;SDS011;63956;52.006;5.878;2022-12-18T08:41:23;13.80;;;5.45;;
75371;SDS011;63956;52.006;5.878;2022-12-18T08:43:52;13.27;;;7.97;;
75371;SDS011;63956;52.006;5.878;2022-12-18T08:46:34;12.02;;;7.05;;
75371;SDS011;63956;52.006;5.878;2022-12-18T08:49:04;14.23;;;8.15;;
75371;SDS011;63956;52.006;5.878;2022-12-18T08:51:35;12.50;;;7.80;;
75371;SDS011;63956;52.006;5.878;2022-12-18T08:54:04;12.75;;;7.05;;
75371;SDS011;63956;52.006;5.878;2022-12-18T08:56:36;14.65;;;9.75;;
75371;SDS011;63956;52.006;5.878;2022-12-18T08:59:05;14.15;;;9.15;;
75371;SDS011;63956;52.006;5.878;2022-12-18T09:01:34;15.55;;;9.38;;
75371;SDS011;63956;52.006;5.878;2022-12-18T09:04:04;13.60;;;6.95;;
75371;SDS011;63956;52.006;5.878;2022-12-18T09:06:33;13.43;;;8.15;;
75371;SDS011;63956;52.006;5.878;2022-12-18T09:09:02;14.48;;;8.27;;
75371;SDS011;63956;52.006;5.878;2022-12-18T09:11:32;12.93;;;7.70;;
75371;SDS011;63956;52.006;5.878;2022-12-18T09:14:05;13.88;;;7.35;;
75371;SDS011;63956;52.006;5.878;2022-12-18T09:16:34;12.20;;;7.80;;
75371;SDS011;63956;52.006;5.878;2022-12-18T09:19:04;13.77;;;7.45;;
75371;SDS011;63956;52.006;5.878;2022-12-18T09:21:34;14.70;;;7.47;;
75371;SDS011;63956;52.006;5.878;2022-12-18T09:24:04;10.75;;;5.30;;
75371;SDS011;63956;52.006;5.878;2022-12-18T09:26:37;13.77;;;7.78;;
75371;SDS011;63956;52.006;5.878;2022-12-18T09:29:06;12.98;;;8.02;;
75371;SDS011;63956;52.006;5.878;2022-12-18T09:31:35;12.88;;;7.43;;
75371;SDS011;63956;52.006;5.878;2022-12-18T09:34:05;11.55;;;6.65;;
75371;SDS011;63956;52.006;5.878;2022-12-18T09:36:34;12.80;;;6.20;;
75371;SDS011;63956;52.006;5.878;2022-12-18T09:39:03;12.85;;;8.30;;
75371;SDS011;63956;52.006;5.878;2022-12-18T09:41:39;10.98;;;6.40;;
75371;SDS011;63956;52.006;5.878;2022-12-18T09:44:16;13.80;;;7.47;;
75371;SDS011;63956;52.006;5.878;2022-12-18T09:46:52;12.40;;;7.05;;
75371;SDS011;63956;52.006;5.878;2022-12-18T09:49:25;10.85;;;3.92;;
75371;SDS011;63956;52.006;5.878;2022-12-18T09:51:59;12.98;;;8.07;;
75371;SDS011;63956;52.006;5.878;2022-12-18T09:54:32;13.43;;;7.20;;
75371;SDS011;63956;52.006;5.878;2022-12-18T09:57:09;11.02;;;6.82;;
75371;SDS011;63956;52.006;5.878;2022-12-18T09:59:41;14.65;;;7.00;;
75371;SDS011;63956;52.006;5.878;2022-12-18T10:02:15;11.95;;;5.88;;
75371;SDS011;63956;52.006;5.878;2022-12-18T10:04:48;12.20;;;7.28;;
75371;SDS011;63956;52.006;5.878;2022-12-18T10:07:27;12.88;;;6.95;;
75371;SDS011;63956;52.006;5.878;2022-12-18T10:10:04;10.88;;;7.45;;
75371;SDS011;63956;52.006;5.878;2022-12-18T10:12:42;13.77;;;7.43;;
75371;SDS011;63956;52.006;5.878;2022-12-18T10:15:17;12.18;;;6.75;;
75371;SDS011;63956;52.006;5.878;2022-12-18T10:17:54;11.82;;;6.45;;
75371;SDS011;63956;52.006;5.878;2022-12-18T10:20:27;13.43;;;7.03;;
75371;SDS011;63956;52.006;5.878;2022-12-18T10:23:02;14.85;;;7.10;;
75371;SDS011;63956;52.006;5.878;2022-12-18T10:25:50;9.32;;;4.85;;
75371;SDS011;63956;52.006;5.878;2022-12-18T10:28:26;14.68;;;8.25;;
75371;SDS011;63956;52.006;5.878;2022-12-18T10:30:57;12.88;;;7.85;;
75371;SDS011;63956;52.006;5.878;2022-12-18T10:33:28;14.23;;;7.90;;
75371;SDS011;63956;52.006;5.878;2022-12-18T10:35:58;12.75;;;6.80;;
75371;SDS011;63956;52.006;5.878;2022-12-18T10:38:29;13.18;;;7.30;;
75371;SDS011;63956;52.006;5.878;2022-12-18T10:40:59;14.02;;;9.40;;
75371;SDS011;63956;52.006;5.878;2022-12-18T10:43:32;15.00;;;7.65;;
75371;SDS011;63956;52.006;5.878;2022-12-18T10:46:04;13.07;;;8.70;;
75371;SDS011;63956;52.006;5.878;2022-12-18T10:48:50;12.63;;;6.63;;
75371;SDS011;63956;52.006;5.878;2022-12-18T10:51:23;14.57;;;7.95;;
75371;SDS011;63956;52.006;5.878;2022-12-18T10:53:55;11.40;;;6.47;;
75371;SDS011;63956;52.006;5.878;2022-12-18T10:56:27;15.48;;;9.57;;
75371;SDS011;63956;52.006;5.878;2022-12-18T10:59:02;14.95;;;8.38;;
75371;SDS011;63956;52.006;5.878;2022-12-18T11:01:44;11.73;;;6.82;;
75371;SDS011;63956;52.006;5.878;2022-12-18T11:04:17;14.35;;;8.23;;
75371;SDS011;63956;52.006;5.878;2022-12-18T11:06:52;13.18;;;8.07;;
75371;SDS011;63956;52.006;5.878;2022-12-18T11:09:24;14.55;;;8.10;;
75371;SDS011;63956;52.006;5.878;2022-12-18T11:11:55;13.98;;;7.75;;
75371;SDS011;63956;52.006;5.878;2022-12-18T11:14:29;15.65;;;8.48;;
75371;SDS011;63956;52.006;5.878;2022-12-18T11:17:01;15.35;;;9.23;;
75371;SDS011;63956;52.006;5.878;2022-12-18T11:19:32;14.48;;;8.73;;
75371;SDS011;63956;52.006;5.878;2022-12-18T11:22:03;15.38;;;8.40;;
75371;SDS011;63956;52.006;5.878;2022-12-18T11:24:52;15.73;;;8.90;;
75371;SDS011;63956;52.006;5.878;2022-12-18T11:27:24;13.23;;;8.02;;
75371;SDS011;63956;52.006;5.878;2022-12-18T11:30:06;13.23;;;8.32;;
75371;SDS011;63956;52.006;5.878;2022-12-18T11:32:37;13.48;;;7.97;;
75371;SDS011;63956;52.006;5.878;2022-12-18T11:35:11;13.23;;;8.48;;
75371;SDS011;63956;52.006;5.878;2022-12-18T11:37:47;14.27;;;9.32;;
75371;SDS011;63956;52.006;5.878;2022-12-18T11:40:19;17.40;;;10.43;;
75371;SDS011;63956;52.006;5.878;2022-12-18T11:42:54;15.00;;;9.32;;
75371;SDS011;63956;52.006;5.878;2022-12-18T11:45:34;16.60;;;10.10;;
75371;SDS011;63956;52.006;5.878;2022-12-18T11:48:12;14.60;;;9.13;;
75371;SDS011;63956;52.006;5.878;2022-12-18T11:50:46;13.43;;;8.43;;
75371;SDS011;63956;52.006;5.878;2022-12-18T11:53:21;14.57;;;7.72;;
75371;SDS011;63956;52.006;5.878;2022-12-18T11:56:00;14.18;;;9.00;;
75371;SDS011;63956;52.006;5.878;2022-12-18T11:58:39;12.18;;;8.18;;
75371;SDS011;63956;52.006;5.878;2022-12-18T12:01:22;14.05;;;7.95;;
75371;SDS011;63956;52.006;5.878;2022-12-18T12:06:58;13.95;;;8.55;;
75371;SDS011;63956;52.006;5.878;2022-12-18T12:09:39;13.30;;;8.15;;
75371;SDS011;63956;52.006;5.878;2022-12-18T12:12:21;14.15;;;7.55;;
75371;SDS011;63956;52.006;5.878;2022-12-18T12:15:13;13.43;;;8.50;;
75371;SDS011;63956;52.006;5.878;2022-12-18T12:17:54;15.13;;;10.63;;
75371;SDS011;63956;52.006;5.878;2022-12-18T12:20:31;13.60;;;7.80;;
75371;SDS011;63956;52.006;5.878;2022-12-18T12:23:11;15.07;;;8.73;;
75371;SDS011;63956;52.006;5.878;2022-12-18T12:25:46;13.77;;;6.55;;
75371;SDS011;63956;52.006;5.878;2022-12-18T12:28:23;13.25;;;8.55;;
75371;SDS011;63956;52.006;5.878;2022-12-18T12:31:01;16.85;;;9.13;;
75371;SDS011;63956;52.006;5.878;2022-12-18T12:33:46;12.65;;;6.90;;
75371;SDS011;63956;52.006;5.878;2022-12-18T12:36:24;16.45;;;9.48;;
75371;SDS011;63956;52.006;5.878;2022-12-18T12:39:01;17.08;;;12.68;;
75371;SDS011;63956;52.006;5.878;2022-12-18T12:41:34;15.88;;;9.40;;
75371;SDS011;63956;52.006;5.878;2022-12-18T12:44:18;15.48;;;9.32;;
75371;SDS011;63956;52.006;5.878;2022-12-18T12:46:52;14.88;;;8.95;;
75371;SDS011;63956;52.006;5.878;2022-12-18T12:49:29;18.23;;;8.82;;
75371;SDS011;63956;52.006;5.878;2022-12-18T12:52:03;17.65;;;8.75;;
75371;SDS011;63956;52.006;5.878;2022-12-18T12:54:36;15.35;;;9.20;;
75371;SDS011;63956;52.006;5.878;2022-12-18T12:57:07;13.93;;;7.07;;
75371;SDS011;63956;52.006;5.878;2022-12-18T12:59:40;14.27;;;8.57;;
75371;SDS011;63956;52.006;5.878;2022-12-18T13:02:19;15.23;;;9.10;;
75371;SDS011;63956;52.006;5.878;2022-12-18T13:04:56;14.63;;;9.60;;
75371;SDS011;63956;52.006;5.878;2022-12-18T13:07:32;16.33;;;9.38;;
75371;SDS011;63956;52.006;5.878;2022-12-18T13:10:19;15.30;;;9.25;;
75371;SDS011;63956;52.006;5.878;2022-12-18T13:12:57;17.08;;;9.07;;
75371;SDS011;63956;52.006;5.878;2022-12-18T13:15:32;14.98;;;9.10;;
75371;SDS011;63956;52.006;5.878;2022-12-18T13:18:13;17.52;;;9.73;;
75371;SDS011;63956;52.006;5.878;2022-12-18T13:20:51;15.20;;;9.43;;
75371;SDS011;63956;52.006;5.878;2022-12-18T13:23:32;14.68;;;8.90;;
75371;SDS011;63956;52.006;5.878;2022-12-18T13:28:57;13.95;;;7.60;;
75371;SDS011;63956;52.006;5.878;2022-12-18T13:34:29;14.55;;;8.27;;
75371;SDS011;63956;52.006;5.878;2022-12-18T13:40:00;16.90;;;8.30;;
75371;SDS011;63956;52.006;5.878;2022-12-18T13:42:38;14.23;;;8.52;;
75371;SDS011;63956;52.006;5.878;2022-12-18T13:45:41;16.58;;;8.55;;
75371;SDS011;63956;52.006;5.878;2022-12-18T13:48:19;20.30;;;10.02;;
75371;SDS011;63956;52.006;5.878;2022-12-18T13:50:56;15.07;;;8.75;;
75371;SDS011;63956;52.006;5.878;2022-12-18T13:53:30;17.30;;;8.95;;
75371;SDS011;63956;52.006;5.878;2022-12-18T13:56:09;15.73;;;8.32;;
75371;SDS011;63956;52.006;5.878;2022-12-18T13:58:44;16.60;;;9.85;;
75371;SDS011;63956;52.006;5.878;2022-12-18T14:01:21;13.98;;;7.68;;
75371;SDS011;63956;52.006;5.878;2022-12-18T14:03:51;15.88;;;9.13;;
75371;SDS011;63956;52.006;5.878;2022-12-18T14:06:37;13.95;;;7.93;;
75371;SDS011;63956;52.006;5.878;2022-12-18T14:09:10;14.15;;;8.10;;
75371;SDS011;63956;52.006;5.878;2022-12-18T14:11:48;14.38;;;8.68;;
75371;SDS011;63956;52.006;5.878;2022-12-18T14:14:18;12.63;;;8.20;;
75371;SDS011;63956;52.006;5.878;2022-12-18T14:16:48;16.00;;;8.93;;
75371;SDS011;63956;52.006;5.878;2022-12-18T14:21:47;15.18;;;9.68;;
75371;SDS011;63956;52.006;5.878;2022-12-18T14:24:18;18.50;;;10.20;;
75371;SDS011;63956;52.006;5.878;2022-12-18T14:26:51;15.82;;;9.13;;
75371;SDS011;63956;52.006;5.878;2022-12-18T14:29:22;14.20;;;8.32;;
75371;SDS011;63956;52.006;5.878;2022-12-18T14:34:41;15.90;;;9.57;;
75371;SDS011;63956;52.006;5.878;2022-12-18T14:37:11;19.17;;;9.82;;
75371;SDS011;63956;52.006;5.878;2022-12-18T14:39:51;13.43;;;8.30;;
75371;SDS011;63956;52.006;5.878;2022-12-18T14:42:24;16.98;;;9.82;;
75371;SDS011;63956;52.006;5.878;2022-12-18T14:47:54;16.50;;;9.43;;
75371;SDS011;63956;52.006;5.878;2022-12-18T14:50:23;18.92;;;9.73;;
75371;SDS011;63956;52.006;5.878;2022-12-18T14:52:52;15.45;;;9.90;;
75371;SDS011;63956;52.006;5.878;2022-12-18T14:55:21;15.73;;;8.27;;
75371;SDS011;63956;52.006;5.878;2022-12-18T14:57:53;16.13;;;9.82;;
75371;SDS011;63956;52.006;5.878;2022-12-18T15:00:25;15.77;;;9.20;;
75371;SDS011;63956;52.006;5.878;2022-12-18T15:02:55;16.23;;;9.82;;
75371;SDS011;63956;52.006;5.878;2022-12-18T15:05:26;17.52;;;11.30;;
75371;SDS011;63956;52.006;5.878;2022-12-18T15:07:58;18.63;;;9.55;;
75371;SDS011;63956;52.006;5.878;2022-12-18T15:10:28;18.05;;;10.13;;
75371;SDS011;63956;52.006;5.878;2022-12-18T15:13:15;15.38;;;6.97;;
75371;SDS011;63956;52.006;5.878;2022-12-18T15:15:50;16.00;;;9.13;;
75371;SDS011;63956;52.006;5.878;2022-12-18T15:18:21;18.38;;;11.00;;
75371;SDS011;63956;52.006;5.878;2022-12-18T15:20:55;18.17;;;10.23;;
75371;SDS011;63956;52.006;5.878;2022-12-18T15:23:28;19.98;;;11.13;;
75371;SDS011;63956;52.006;5.878;2022-12-18T15:26:03;21.40;;;11.50;;
75371;SDS011;63956;52.006;5.878;2022-12-18T15:28:37;15.60;;;8.48;;
75371;SDS011;63956;52.006;5.878;2022-12-18T15:31:22;15.13;;;9.13;;
75371;SDS011;63956;52.006;5.878;2022-12-18T15:34:08;21.42;;;10.88;;
75371;SDS011;63956;52.006;5.878;2022-12-18T15:36:40;20.67;;;11.23;;
75371;SDS011;63956;52.006;5.878;2022-12-18T15:39:10;19.45;;;10.18;;